METAR Data
IDs: Format: Raw Decoded Include TAF

Data at: 1344 UTC 21 Apr 2021

KMKT 211256Z AUTO 32010KT 10SM CLR M03/M08 A3021 RMK AO2 SLP244 T10281078 FZRANO